createdAt,value
2017-05-10T00:00:11.975Z,20.70
2017-05-10T00:01:11.706Z,20.70
2017-05-10T00:02:09.598Z,20.70
2017-05-10T00:03:11.874Z,20.70
2017-05-10T00:04:12.812Z,20.70
2017-05-10T00:05:12.425Z,20.70
2017-05-10T00:06:12.826Z,20.70
2017-05-10T00:07:12.530Z,20.70
2017-05-10T00:08:12.059Z,20.70
2017-05-10T00:09:10.326Z,20.70
2017-05-10T00:10:12.882Z,20.70
2017-05-10T00:11:12.246Z,20.60
2017-05-10T00:12:12.239Z,20.70
2017-05-10T00:13:12.006Z,20.70
2017-05-10T00:14:13.033Z,20.70
2017-05-10T00:15:12.812Z,20.60
2017-05-10T00:16:14.084Z,20.70
2017-05-10T00:17:10.571Z,20.70
2017-05-10T00:18:12.975Z,20.70
2017-05-10T00:19:11.926Z,20.70
2017-05-10T00:20:12.225Z,20.70
2017-05-10T00:21:12.804Z,20.70
2017-05-10T00:22:12.306Z,20.70
2017-05-10T00:23:09.458Z,20.70
2017-05-10T00:24:13.811Z,20.70
2017-05-10T00:25:09.335Z,20.70
2017-05-10T00:26:09.639Z,20.70
2017-05-10T00:27:11.964Z,20.70
2017-05-10T00:28:11.768Z,20.70
2017-05-10T00:29:12.647Z,20.70
2017-05-10T00:30:12.898Z,20.70
2017-05-10T00:31:12.638Z,20.70
2017-05-10T00:32:12.645Z,20.70
2017-05-10T00:33:12.282Z,20.70
2017-05-10T00:34:12.742Z,20.70
2017-05-10T00:35:12.174Z,20.60
2017-05-10T00:36:11.882Z,20.60
2017-05-10T00:37:09.473Z,20.70
2017-05-10T00:38:12.705Z,20.70
2017-05-10T00:39:12.990Z,20.70
2017-05-10T00:40:11.952Z,20.70
2017-05-10T00:41:13.714Z,20.70
2017-05-10T00:42:12.266Z,20.70
2017-05-10T00:43:12.060Z,20.70
2017-05-10T00:44:12.018Z,20.60
2017-05-10T00:45:12.837Z,20.70
2017-05-10T00:46:12.774Z,20.60
2017-05-10T00:47:10.583Z,20.70
2017-05-10T00:48:11.753Z,20.60
2017-05-10T00:49:12.575Z,20.70
2017-05-10T00:50:10.334Z,20.70
2017-05-10T00:51:13.201Z,20.60
2017-05-10T00:52:13.441Z,20.70
2017-05-10T00:53:10.238Z,20.70
2017-05-10T00:54:13.747Z,20.60
2017-05-10T00:55:12.704Z,20.70
2017-05-10T00:56:09.507Z,20.70
2017-05-10T00:57:12.017Z,20.70
2017-05-10T00:58:12.162Z,20.70
2017-05-10T00:59:12.909Z,20.70
2017-05-10T01:00:12.814Z,20.60
2017-05-10T01:01:12.359Z,20.70
2017-05-10T01:02:12.856Z,20.70
2017-05-10T01:03:12.236Z,20.70
2017-05-10T01:04:12.144Z,20.60
2017-05-10T01:05:09.779Z,20.70
2017-05-10T01:06:12.247Z,20.70
2017-05-10T01:07:11.998Z,20.70
2017-05-10T01:08:12.315Z,20.70
2017-05-10T01:09:13.167Z,20.60
2017-05-10T01:10:12.462Z,20.70
2017-05-10T01:11:12.318Z,20.70
2017-05-10T01:12:12.753Z,20.70
2017-05-10T01:13:13.510Z,20.70
2017-05-10T01:14:12.245Z,20.70
2017-05-10T01:15:13.303Z,20.60
2017-05-10T01:16:09.431Z,20.70
2017-05-10T01:17:14.900Z,20.60
2017-05-10T01:18:10.325Z,20.70
2017-05-10T01:19:12.467Z,20.60
2017-05-10T01:20:12.601Z,20.60
2017-05-10T01:21:12.304Z,20.70
2017-05-10T01:22:12.582Z,20.70
2017-05-10T01:23:12.367Z,20.70
2017-05-10T01:24:12.262Z,20.60
2017-05-10T01:25:12.294Z,20.60
2017-05-10T01:26:12.634Z,20.60
2017-05-10T01:27:10.482Z,20.70
2017-05-10T01:28:12.259Z,20.70
2017-05-10T01:29:11.707Z,20.60
2017-05-10T01:30:14.403Z,20.70
2017-05-10T01:31:12.181Z,20.60
2017-05-10T01:32:11.919Z,20.60
2017-05-10T01:33:12.607Z,20.60
2017-05-10T01:34:11.230Z,20.60
2017-05-10T01:35:12.048Z,20.60
2017-05-10T01:36:11.708Z,20.60
2017-05-10T01:37:12.322Z,20.70
2017-05-10T01:38:12.182Z,20.60
2017-05-10T01:39:13.467Z,20.70
2017-05-10T01:40:08.822Z,20.70
2017-05-10T01:41:13.202Z,20.60
2017-05-10T01:42:11.801Z,20.60
2017-05-10T01:43:14.121Z,20.60
2017-05-10T01:44:11.936Z,20.70
2017-05-10T01:45:13.404Z,20.70
2017-05-10T01:46:12.815Z,20.70
2017-05-10T01:47:12.814Z,20.70
2017-05-10T01:48:12.216Z,20.70
2017-05-10T01:49:13.564Z,20.70
2017-05-10T01:50:13.284Z,20.70
2017-05-10T01:51:11.964Z,20.60
2017-05-10T01:52:11.724Z,20.60
2017-05-10T01:53:10.126Z,20.60
2017-05-10T01:54:13.705Z,20.70
2017-05-10T01:55:12.867Z,20.70
2017-05-10T01:56:12.357Z,20.70
2017-05-10T01:57:13.200Z,20.60
2017-05-10T01:58:10.056Z,20.70
2017-05-10T01:59:09.878Z,20.70
2017-05-10T02:00:12.037Z,20.60
2017-05-10T02:01:12.643Z,20.60
2017-05-10T02:02:12.217Z,20.70
2017-05-10T02:03:08.654Z,20.70
2017-05-10T02:04:11.922Z,20.70
2017-05-10T02:05:12.574Z,20.60
2017-05-10T02:06:12.207Z,20.60
2017-05-10T02:07:12.049Z,20.60
2017-05-10T02:08:12.294Z,20.60
2017-05-10T02:09:15.258Z,20.60
2017-05-10T02:10:12.101Z,20.60
2017-05-10T02:11:12.700Z,20.60
2017-05-10T02:12:11.567Z,20.60
2017-05-10T02:13:12.490Z,20.60
2017-05-10T02:14:09.495Z,20.70
2017-05-10T02:15:12.598Z,20.70
2017-05-10T02:16:12.197Z,20.60
2017-05-10T02:17:12.242Z,20.60
2017-05-10T02:18:12.683Z,20.60
2017-05-10T02:19:12.239Z,20.60
2017-05-10T02:20:12.543Z,20.60
2017-05-10T02:21:12.837Z,20.60
2017-05-10T02:22:12.610Z,20.60
2017-05-10T02:23:13.267Z,20.60
2017-05-10T02:24:13.151Z,20.60
2017-05-10T02:25:12.270Z,20.60
2017-05-10T02:26:11.987Z,20.60
2017-05-10T02:27:11.816Z,20.60
2017-05-10T02:28:12.549Z,20.60
2017-05-10T02:29:12.899Z,20.60
2017-05-10T02:30:12.900Z,20.60
2017-05-10T02:31:13.553Z,20.60
2017-05-10T02:32:12.339Z,20.60
2017-05-10T02:33:12.453Z,20.60
2017-05-10T02:34:12.303Z,20.60
2017-05-10T02:35:11.984Z,20.60
2017-05-10T02:36:11.977Z,20.60
2017-05-10T02:37:12.583Z,20.60
2017-05-10T02:38:12.901Z,20.60
2017-05-10T02:39:13.856Z,20.70
2017-05-10T02:40:13.901Z,20.60
2017-05-10T02:41:15.127Z,20.60
2017-05-10T02:42:12.032Z,20.60
2017-05-10T02:43:09.721Z,20.60
2017-05-10T02:44:12.752Z,20.60
2017-05-10T02:45:13.726Z,20.60
2017-05-10T02:46:10.242Z,20.60
2017-05-10T02:47:14.392Z,20.60
2017-05-10T02:48:12.647Z,20.60
2017-05-10T02:49:12.244Z,20.60
2017-05-10T02:50:12.236Z,20.60
2017-05-10T02:51:11.931Z,20.70
2017-05-10T02:52:11.922Z,20.60
2017-05-10T02:53:13.168Z,20.60
2017-05-10T02:54:13.309Z,20.60
2017-05-10T02:55:12.642Z,20.70
2017-05-10T02:56:09.749Z,20.70
2017-05-10T02:57:12.692Z,20.70
2017-05-10T02:58:12.347Z,20.60
2017-05-10T02:59:11.854Z,20.60
2017-05-10T03:00:11.695Z,20.60
2017-05-10T03:01:12.272Z,20.60
2017-05-10T03:02:12.287Z,20.60
2017-05-10T03:03:13.760Z,20.60
2017-05-10T03:04:12.747Z,20.60
2017-05-10T03:05:09.805Z,20.60
2017-05-10T03:06:11.938Z,20.60
2017-05-10T03:07:12.453Z,20.60
2017-05-10T03:08:12.403Z,20.60
2017-05-10T03:09:14.995Z,20.60
2017-05-10T03:10:09.959Z,20.60
2017-05-10T03:11:12.473Z,20.60
2017-05-10T03:12:11.938Z,20.60
2017-05-10T03:13:09.084Z,20.70
2017-05-10T03:14:12.547Z,20.60
2017-05-10T03:15:12.504Z,20.70
2017-05-10T03:16:12.040Z,20.70
2017-05-10T03:17:12.448Z,20.60
2017-05-10T03:18:11.979Z,20.60
2017-05-10T03:19:12.595Z,20.70
2017-05-10T03:20:12.550Z,20.70
2017-05-10T03:21:12.276Z,20.60
2017-05-10T03:22:11.890Z,20.60
2017-05-10T03:23:10.511Z,20.70
2017-05-10T03:24:14.055Z,20.60
2017-05-10T03:25:09.045Z,20.70
2017-05-10T03:26:11.775Z,20.60
2017-05-10T03:27:10.151Z,20.60
2017-05-10T03:28:12.460Z,20.60
2017-05-10T03:29:12.021Z,20.60
2017-05-10T03:30:11.728Z,20.60
2017-05-10T03:31:14.875Z,20.60
2017-05-10T03:32:13.393Z,20.60
2017-05-10T03:33:09.392Z,20.60
2017-05-10T03:34:12.340Z,20.60
2017-05-10T03:35:12.569Z,20.60
2017-05-10T03:36:10.027Z,20.60
2017-05-10T03:37:11.854Z,20.60
2017-05-10T03:38:12.830Z,20.60
2017-05-10T03:39:14.655Z,20.60
2017-05-10T03:40:12.439Z,20.60
2017-05-10T03:41:13.875Z,20.60
2017-05-10T03:42:12.276Z,20.60
2017-05-10T03:43:12.000Z,20.60
2017-05-10T03:44:11.663Z,20.60
2017-05-10T03:45:12.750Z,20.60
2017-05-10T03:46:12.688Z,20.60
2017-05-10T03:47:12.406Z,20.60
2017-05-10T03:48:12.703Z,20.60
2017-05-10T03:49:12.908Z,20.60
2017-05-10T03:50:11.767Z,20.60
2017-05-10T03:51:12.660Z,20.60
2017-05-10T03:52:12.795Z,20.60
2017-05-10T03:53:12.860Z,20.60
2017-05-10T03:54:13.457Z,20.60
2017-05-10T03:55:12.704Z,20.60
2017-05-10T03:56:12.429Z,20.60
2017-05-10T03:57:12.027Z,20.60
2017-05-10T03:58:09.742Z,20.60
2017-05-10T03:59:12.933Z,20.60
2017-05-10T04:00:12.016Z,20.60
2017-05-10T04:01:12.326Z,20.60
2017-05-10T04:02:12.854Z,20.60
2017-05-10T04:03:12.924Z,20.60
2017-05-10T04:04:12.854Z,20.60
2017-05-10T04:05:09.914Z,20.60
2017-05-10T04:06:13.816Z,20.60
2017-05-10T04:07:12.384Z,20.60
2017-05-10T04:08:09.668Z,20.60
2017-05-10T04:09:13.703Z,20.60
2017-05-10T04:10:12.619Z,20.60
2017-05-10T04:11:12.100Z,20.60
2017-05-10T04:12:12.381Z,20.60
2017-05-10T04:13:12.217Z,20.60
2017-05-10T04:14:12.019Z,20.60
2017-05-10T04:15:11.636Z,20.60
2017-05-10T04:16:12.472Z,20.60
2017-05-10T04:17:12.394Z,20.60
2017-05-10T04:18:12.427Z,20.60
2017-05-10T04:19:12.194Z,20.60
2017-05-10T04:20:13.929Z,20.60
2017-05-10T04:21:13.123Z,20.60
2017-05-10T04:22:11.865Z,20.60
2017-05-10T04:23:12.762Z,20.60
2017-05-10T04:24:13.425Z,20.60
2017-05-10T04:25:13.157Z,20.60
2017-05-10T04:26:12.322Z,20.60
2017-05-10T04:27:11.971Z,20.60
2017-05-10T04:28:11.938Z,20.60
2017-05-10T04:29:14.034Z,20.60
2017-05-10T04:30:11.758Z,20.60
2017-05-10T04:31:12.248Z,20.60
2017-05-10T04:32:12.399Z,20.60
2017-05-10T04:33:12.182Z,20.60
2017-05-10T04:34:14.801Z,20.60
2017-05-10T04:35:11.181Z,20.60
2017-05-10T04:36:12.597Z,20.60
2017-05-10T04:37:12.842Z,20.60
2017-05-10T04:38:16.120Z,20.60
2017-05-10T04:39:13.041Z,20.60
2017-05-10T04:40:12.537Z,20.60
2017-05-10T04:41:13.991Z,20.60
2017-05-10T04:42:10.317Z,20.60
2017-05-10T04:43:11.803Z,20.60
2017-05-10T04:44:09.829Z,20.60
2017-05-10T04:45:12.191Z,20.60
2017-05-10T04:46:12.705Z,20.60
2017-05-10T04:47:12.748Z,20.60
2017-05-10T04:48:12.662Z,20.60
2017-05-10T04:49:12.874Z,20.60
2017-05-10T04:50:12.928Z,20.60
2017-05-10T04:51:13.170Z,20.60
2017-05-10T04:52:11.992Z,20.60
2017-05-10T04:53:13.486Z,20.60
2017-05-10T04:54:13.982Z,20.60
2017-05-10T04:55:10.812Z,20.60
2017-05-10T04:56:09.220Z,20.60
2017-05-10T04:57:12.819Z,20.60
2017-05-10T04:58:13.202Z,20.60
2017-05-10T04:59:12.207Z,20.60
2017-05-10T05:00:12.230Z,20.60
2017-05-10T05:01:12.354Z,20.60
2017-05-10T05:02:12.083Z,20.60
2017-05-10T05:03:14.509Z,20.60
2017-05-10T05:04:12.335Z,20.60
2017-05-10T05:05:14.142Z,20.60
2017-05-10T05:06:12.106Z,20.60
2017-05-10T05:07:12.196Z,20.60
2017-05-10T05:08:12.892Z,20.60
2017-05-10T05:09:17.037Z,20.60
2017-05-10T05:10:12.963Z,20.60
2017-05-10T05:11:13.860Z,20.60
2017-05-10T05:12:13.598Z,20.60
2017-05-10T05:13:12.689Z,20.60
2017-05-10T05:14:09.351Z,20.60
2017-05-10T05:15:12.485Z,20.60
2017-05-10T05:16:12.958Z,20.60
2017-05-10T05:17:12.606Z,20.60
2017-05-10T05:18:09.071Z,20.60
2017-05-10T05:19:12.270Z,20.60
2017-05-10T05:20:12.597Z,20.60
2017-05-10T05:21:12.515Z,20.60
2017-05-10T05:22:12.841Z,20.60
2017-05-10T05:23:10.497Z,20.60
2017-05-10T05:24:13.119Z,20.60
2017-05-10T05:25:11.849Z,20.60
2017-05-10T05:26:12.212Z,20.60
2017-05-10T05:27:12.074Z,20.60
2017-05-10T05:28:12.307Z,20.60
2017-05-10T05:29:12.153Z,20.60
2017-05-10T05:30:11.875Z,20.60
2017-05-10T05:31:13.249Z,20.60
2017-05-10T05:32:13.032Z,20.60
2017-05-10T05:33:09.965Z,20.60
2017-05-10T05:34:12.225Z,20.60
2017-05-10T05:35:11.993Z,20.60
2017-05-10T05:36:12.799Z,20.60
2017-05-10T05:37:12.643Z,20.60
2017-05-10T05:38:12.471Z,20.60
2017-05-10T05:39:13.481Z,20.60
2017-05-10T05:40:12.002Z,20.60
2017-05-10T05:41:12.497Z,20.60
2017-05-10T05:42:09.267Z,20.60
2017-05-10T05:43:12.021Z,20.60
2017-05-10T05:44:12.728Z,20.60
2017-05-10T05:45:12.776Z,20.60
2017-05-10T05:46:12.494Z,20.60
2017-05-10T05:47:12.856Z,20.60
2017-05-10T05:48:12.909Z,20.60
2017-05-10T05:49:12.563Z,20.60
2017-05-10T05:50:12.925Z,20.60
2017-05-10T05:51:12.648Z,20.60
2017-05-10T05:52:12.342Z,20.60
2017-05-10T05:53:12.706Z,20.60
2017-05-10T05:54:13.681Z,20.60
2017-05-10T05:55:12.822Z,20.60
2017-05-10T05:56:12.721Z,20.60
2017-05-10T05:57:12.856Z,20.60
2017-05-10T05:58:12.758Z,20.60
2017-05-10T05:59:12.554Z,20.60
2017-05-10T06:00:13.574Z,20.60
2017-05-10T06:01:13.118Z,20.60
2017-05-10T06:02:14.302Z,20.60
2017-05-10T06:03:12.668Z,20.60
2017-05-10T06:04:12.550Z,20.60
2017-05-10T06:05:09.168Z,20.60
2017-05-10T06:06:12.523Z,20.60
2017-05-10T06:07:12.193Z,20.60
2017-05-10T06:08:12.568Z,20.60
2017-05-10T06:09:12.956Z,20.60
2017-05-10T06:10:12.985Z,20.60
2017-05-10T06:11:11.736Z,20.60
2017-05-10T06:12:13.209Z,20.60
2017-05-10T06:13:11.973Z,20.60
2017-05-10T06:14:11.884Z,20.60
2017-05-10T06:15:12.859Z,20.60
2017-05-10T06:16:13.037Z,20.60
2017-05-10T06:17:12.489Z,20.60
2017-05-10T06:18:12.713Z,20.60
2017-05-10T06:19:12.330Z,20.60
2017-05-10T06:20:12.099Z,20.60
2017-05-10T06:21:11.701Z,20.60
2017-05-10T06:22:13.263Z,20.60
2017-05-10T06:23:12.395Z,20.60
2017-05-10T06:24:13.988Z,20.60
2017-05-10T06:25:12.531Z,20.60
2017-05-10T06:26:13.045Z,20.60
2017-05-10T06:27:11.736Z,20.60
2017-05-10T06:28:12.386Z,20.60
2017-05-10T06:29:13.755Z,20.60
2017-05-10T06:30:12.615Z,20.60
2017-05-10T06:31:12.412Z,20.60
2017-05-10T06:32:12.246Z,20.60
2017-05-10T06:33:12.384Z,20.60
2017-05-10T06:34:12.446Z,20.60
2017-05-10T06:35:12.747Z,20.60
2017-05-10T06:36:13.206Z,20.60
2017-05-10T06:37:11.770Z,20.60
2017-05-10T06:38:12.841Z,20.60
2017-05-10T06:39:15.345Z,20.60
2017-05-10T06:40:12.919Z,20.60
2017-05-10T06:41:12.834Z,20.60
2017-05-10T06:42:12.758Z,20.60
2017-05-10T06:43:13.031Z,20.60
2017-05-10T06:44:13.080Z,20.60
2017-05-10T06:45:13.182Z,20.60
2017-05-10T06:46:11.960Z,20.60
2017-05-10T06:47:11.944Z,20.60
2017-05-10T06:48:12.055Z,20.60
2017-05-10T06:49:11.652Z,20.60
2017-05-10T06:50:13.086Z,20.60
2017-05-10T06:51:12.010Z,20.60
2017-05-10T06:52:12.262Z,20.60
2017-05-10T06:53:12.228Z,20.60
2017-05-10T06:54:13.232Z,20.60
2017-05-10T06:55:09.536Z,20.60
2017-05-10T06:56:09.969Z,20.60
2017-05-10T06:57:13.547Z,20.60
2017-05-10T06:58:13.089Z,20.60
2017-05-10T06:59:13.738Z,20.60
2017-05-10T07:00:13.316Z,20.70
2017-05-10T07:01:13.486Z,20.80
2017-05-10T07:02:14.076Z,21.00
2017-05-10T07:03:12.274Z,21.30
2017-05-10T07:04:12.783Z,21.60
2017-05-10T07:05:13.503Z,21.50
2017-05-10T07:06:12.609Z,21.40
2017-05-10T07:07:09.522Z,21.30
2017-05-10T07:08:13.606Z,21.10
2017-05-10T07:09:13.748Z,21.10
2017-05-10T07:10:12.757Z,21.00
2017-05-10T07:11:13.507Z,20.90
2017-05-10T07:12:13.207Z,20.90
2017-05-10T07:13:14.036Z,20.80
2017-05-10T07:14:12.251Z,20.80
2017-05-10T07:15:10.439Z,20.70
2017-05-10T07:16:12.416Z,20.70
2017-05-10T07:17:12.530Z,20.70
2017-05-10T07:18:12.615Z,20.60
2017-05-10T07:19:14.386Z,20.60
2017-05-10T07:20:10.367Z,20.60
2017-05-10T07:21:12.791Z,20.60
2017-05-10T07:22:13.062Z,20.60
2017-05-10T07:23:12.536Z,20.50
2017-05-10T07:24:13.295Z,20.50
2017-05-10T07:25:12.950Z,20.50
2017-05-10T07:26:13.719Z,20.50
2017-05-10T07:27:13.067Z,20.50
2017-05-10T07:28:10.089Z,20.50
2017-05-10T07:29:11.744Z,20.50
2017-05-10T07:30:13.490Z,20.50
2017-05-10T07:31:12.357Z,20.40
2017-05-10T07:32:12.258Z,20.40
2017-05-10T07:33:12.320Z,20.40
2017-05-10T07:34:12.828Z,20.40
2017-05-10T07:35:12.685Z,20.40
2017-05-10T07:36:12.281Z,20.40
2017-05-10T07:37:12.128Z,20.40
2017-05-10T07:38:12.252Z,20.40
2017-05-10T07:39:13.677Z,20.50
2017-05-10T07:40:12.329Z,20.40
2017-05-10T07:41:12.281Z,20.50
2017-05-10T07:42:12.616Z,20.50
2017-05-10T07:43:14.987Z,20.50
2017-05-10T07:44:12.065Z,20.50
2017-05-10T07:45:12.265Z,20.50
2017-05-10T07:46:12.322Z,20.50
2017-05-10T07:47:12.914Z,20.50
2017-05-10T07:48:12.700Z,20.50
2017-05-10T07:49:13.135Z,20.50
2017-05-10T07:50:12.296Z,20.50
2017-05-10T07:51:12.755Z,20.50
2017-05-10T07:52:12.864Z,20.50
2017-05-10T07:53:12.404Z,20.50
2017-05-10T07:54:10.236Z,20.50
2017-05-10T07:55:13.183Z,20.50
2017-05-10T07:56:10.325Z,20.50
2017-05-10T07:57:12.198Z,20.50
2017-05-10T07:58:13.906Z,20.50
2017-05-10T07:59:12.970Z,20.60
2017-05-10T08:00:14.293Z,20.50
2017-05-10T08:01:09.624Z,20.60
2017-05-10T08:02:12.946Z,20.60
2017-05-10T08:03:12.897Z,20.60
2017-05-10T08:04:12.947Z,20.60
2017-05-10T08:05:13.245Z,20.60
2017-05-10T08:06:10.414Z,20.60
2017-05-10T08:07:12.090Z,20.60
2017-05-10T08:08:12.076Z,20.60
2017-05-10T08:09:12.956Z,20.60
2017-05-10T08:10:13.299Z,20.60
2017-05-10T08:11:12.204Z,20.60
2017-05-10T08:12:09.689Z,20.60
2017-05-10T08:13:12.723Z,20.60
2017-05-10T08:14:13.221Z,20.60
2017-05-10T08:15:12.899Z,20.60
2017-05-10T08:16:12.766Z,20.60
2017-05-10T08:17:12.772Z,20.60
2017-05-10T08:18:09.098Z,20.60
2017-05-10T08:19:12.856Z,20.60
2017-05-10T08:20:13.701Z,20.60
2017-05-10T08:21:13.108Z,20.60
2017-05-10T08:22:11.957Z,20.60
2017-05-10T08:23:11.815Z,20.60
2017-05-10T08:24:13.395Z,20.60
2017-05-10T08:25:10.057Z,20.60
2017-05-10T08:26:10.543Z,20.60
2017-05-10T08:27:12.854Z,20.70
2017-05-10T08:28:13.093Z,20.60
2017-05-10T08:29:12.202Z,20.60
2017-05-10T08:30:12.783Z,20.70
2017-05-10T08:31:09.528Z,20.70
2017-05-10T08:32:12.710Z,20.60
2017-05-10T08:33:12.524Z,20.70
2017-05-10T08:34:12.525Z,20.60
2017-05-10T08:35:10.456Z,20.70
2017-05-10T08:36:12.848Z,20.70
2017-05-10T08:37:12.655Z,20.70
2017-05-10T08:38:12.521Z,20.70
2017-05-10T08:39:13.325Z,20.70
2017-05-10T08:40:12.818Z,20.70
2017-05-10T08:41:12.730Z,20.70
2017-05-10T08:42:14.087Z,20.70
2017-05-10T08:43:12.984Z,20.70
2017-05-10T08:44:13.263Z,20.70
2017-05-10T08:45:11.866Z,20.70
2017-05-10T08:46:11.932Z,20.70
2017-05-10T08:47:12.635Z,20.70
2017-05-10T08:48:12.865Z,20.70
2017-05-10T08:49:12.407Z,20.60
2017-05-10T08:50:12.351Z,20.70
2017-05-10T08:51:12.337Z,20.70
2017-05-10T08:52:14.145Z,20.70
2017-05-10T08:53:12.311Z,20.70
2017-05-10T08:54:11.020Z,20.70
2017-05-10T08:55:13.482Z,20.70
2017-05-10T08:56:13.095Z,20.70
2017-05-10T08:57:13.557Z,20.70
2017-05-10T08:58:12.919Z,20.70
2017-05-10T08:59:14.691Z,20.70
2017-05-10T09:00:13.192Z,20.70
2017-05-10T09:01:13.471Z,20.70
2017-05-10T09:02:13.106Z,20.70
2017-05-10T09:03:12.246Z,20.70
2017-05-10T09:04:12.752Z,20.70
2017-05-10T09:05:12.866Z,20.70
2017-05-10T09:06:11.947Z,20.70
2017-05-10T09:07:12.064Z,20.70
2017-05-10T09:08:12.781Z,20.70
2017-05-10T09:09:14.417Z,20.70
2017-05-10T09:10:13.165Z,20.70
2017-05-10T09:11:12.254Z,20.70
2017-05-10T09:12:13.577Z,20.70
2017-05-10T09:13:12.422Z,20.70
2017-05-10T09:14:13.036Z,20.70
2017-05-10T09:15:11.719Z,20.70
2017-05-10T09:16:13.098Z,20.70
2017-05-10T09:17:12.536Z,20.70
2017-05-10T09:18:09.519Z,20.70
2017-05-10T09:19:13.413Z,20.70
2017-05-10T09:20:13.091Z,20.70
2017-05-10T09:21:12.209Z,20.70
2017-05-10T09:22:14.314Z,20.70
2017-05-10T09:23:12.264Z,20.70
2017-05-10T09:24:10.966Z,20.70
2017-05-10T09:25:12.256Z,20.70
2017-05-10T09:26:10.713Z,20.70
2017-05-10T09:27:12.577Z,20.70
2017-05-10T09:28:12.305Z,20.70
2017-05-10T09:29:10.415Z,20.70
2017-05-10T09:30:12.709Z,20.70
2017-05-10T09:31:12.506Z,20.70
2017-05-10T09:32:14.395Z,20.70
2017-05-10T09:33:14.652Z,20.70
2017-05-10T09:34:13.217Z,20.70
2017-05-10T09:35:12.003Z,20.70
2017-05-10T09:36:12.294Z,20.70
2017-05-10T09:37:10.207Z,20.70
2017-05-10T09:38:12.700Z,20.70
2017-05-10T09:39:13.366Z,20.70
2017-05-10T09:40:12.550Z,20.70
2017-05-10T09:41:12.908Z,20.80
2017-05-10T09:42:12.625Z,20.70
2017-05-10T09:43:13.433Z,20.80
2017-05-10T09:44:12.772Z,20.70
2017-05-10T09:45:13.310Z,20.70
2017-05-10T09:46:12.297Z,20.80
2017-05-10T09:47:13.592Z,20.70
2017-05-10T09:48:14.026Z,20.70
2017-05-10T09:49:12.373Z,20.70
2017-05-10T09:50:11.994Z,20.70
2017-05-10T09:51:12.476Z,20.80
2017-05-10T09:52:12.172Z,20.80
2017-05-10T09:53:12.311Z,20.80
2017-05-10T09:54:14.553Z,20.80
2017-05-10T09:55:12.154Z,20.70
2017-05-10T09:56:13.011Z,20.80
2017-05-10T09:57:12.384Z,20.70
2017-05-10T09:58:14.519Z,20.80
2017-05-10T09:59:11.971Z,20.70
2017-05-10T10:00:11.965Z,20.80
2017-05-10T10:01:09.342Z,20.80
2017-05-10T10:02:13.521Z,20.80
2017-05-10T10:03:12.687Z,20.70
2017-05-10T10:04:13.960Z,20.80
2017-05-10T10:05:12.879Z,20.80
2017-05-10T10:06:14.106Z,20.80
2017-05-10T10:07:11.851Z,20.80
2017-05-10T10:08:12.576Z,20.80
2017-05-10T10:09:13.490Z,20.80
2017-05-10T10:10:12.933Z,20.80
2017-05-10T10:11:13.528Z,20.80
2017-05-10T10:12:12.301Z,20.80
2017-05-10T10:13:12.187Z,20.80
2017-05-10T10:14:12.209Z,20.80
2017-05-10T10:15:12.495Z,20.80
2017-05-10T10:16:18.104Z,20.80
2017-05-10T10:17:12.247Z,20.80
2017-05-10T10:18:12.822Z,20.80
2017-05-10T10:19:15.167Z,20.80
2017-05-10T10:20:13.068Z,20.80
2017-05-10T10:21:12.789Z,20.80
2017-05-10T10:22:13.041Z,20.80
2017-05-10T10:23:12.571Z,20.80
2017-05-10T10:24:13.955Z,20.80
2017-05-10T10:25:13.868Z,20.80
2017-05-10T10:26:12.772Z,20.80
2017-05-10T10:27:12.422Z,20.80
2017-05-10T10:28:12.708Z,20.80
2017-05-10T10:29:09.955Z,20.80
2017-05-10T10:30:14.068Z,20.80
2017-05-10T10:31:12.625Z,20.80
2017-05-10T10:32:12.946Z,20.80
2017-05-10T10:33:13.414Z,20.80
2017-05-10T10:34:13.261Z,20.80
2017-05-10T10:35:14.807Z,20.80
2017-05-10T10:36:12.657Z,20.80
2017-05-10T10:37:14.617Z,20.80
2017-05-10T10:38:12.814Z,20.80
2017-05-10T10:39:09.638Z,20.80
2017-05-10T10:40:12.972Z,20.80
2017-05-10T10:41:18.206Z,20.80
2017-05-10T10:42:12.783Z,20.80
2017-05-10T10:43:12.938Z,20.80
2017-05-10T10:44:12.768Z,20.80
2017-05-10T10:45:13.266Z,20.80
2017-05-10T10:46:12.284Z,20.80
2017-05-10T10:47:13.295Z,20.80
2017-05-10T10:48:12.695Z,20.80
2017-05-10T10:49:13.800Z,20.80
2017-05-10T10:50:13.333Z,20.80
2017-05-10T10:51:13.775Z,20.80
2017-05-10T10:52:12.854Z,20.80
2017-05-10T10:53:13.907Z,20.80
2017-05-10T10:54:13.805Z,20.80
2017-05-10T10:55:14.082Z,20.80
2017-05-10T10:56:12.722Z,20.80
2017-05-10T10:57:14.362Z,20.80
2017-05-10T10:58:14.528Z,20.90
2017-05-10T10:59:12.951Z,20.90
2017-05-10T11:00:13.759Z,20.90
2017-05-10T11:01:13.553Z,20.90
2017-05-10T11:02:13.226Z,20.80
2017-05-10T11:03:12.325Z,20.80
2017-05-10T11:04:12.727Z,20.80
2017-05-10T11:05:13.476Z,20.90
2017-05-10T11:06:13.031Z,20.80
2017-05-10T11:07:13.352Z,20.80
2017-05-10T11:08:09.336Z,20.90
2017-05-10T11:09:13.445Z,20.80
2017-05-10T11:10:12.411Z,20.80
2017-05-10T11:11:13.141Z,20.80
2017-05-10T11:12:13.440Z,20.80
2017-05-10T11:13:12.275Z,20.80
2017-05-10T11:14:12.092Z,20.80
2017-05-10T11:15:12.831Z,20.80
2017-05-10T11:16:12.526Z,20.80
2017-05-10T11:17:13.040Z,20.90
2017-05-10T11:18:14.560Z,20.90
2017-05-10T11:19:12.800Z,20.90
2017-05-10T11:20:12.646Z,20.80
2017-05-10T11:21:13.240Z,20.80
2017-05-10T11:22:11.872Z,20.90
2017-05-10T11:23:12.810Z,20.90
2017-05-10T11:24:14.091Z,20.90
2017-05-10T11:25:11.150Z,20.90
2017-05-10T11:26:12.867Z,20.80
2017-05-10T11:27:13.694Z,20.90
2017-05-10T11:28:12.682Z,20.90
2017-05-10T11:29:12.478Z,20.80
2017-05-10T11:30:12.999Z,20.90
2017-05-10T11:31:12.487Z,20.80
2017-05-10T11:32:12.595Z,20.80
2017-05-10T11:33:13.634Z,20.80
2017-05-10T11:34:11.119Z,20.90
2017-05-10T11:35:13.387Z,20.90
2017-05-10T11:36:12.551Z,20.90
2017-05-10T11:37:12.259Z,20.90
2017-05-10T11:38:12.648Z,20.90
2017-05-10T11:39:13.270Z,20.90
2017-05-10T11:40:11.861Z,20.90
2017-05-10T11:41:12.631Z,20.90
2017-05-10T11:42:12.471Z,20.90
2017-05-10T11:43:12.600Z,20.90
2017-05-10T11:44:12.860Z,20.90
2017-05-10T11:45:13.079Z,20.90
2017-05-10T11:46:13.502Z,20.90
2017-05-10T11:47:13.130Z,20.90
2017-05-10T11:48:14.502Z,20.90
2017-05-10T11:49:13.774Z,20.90
2017-05-10T11:50:10.901Z,20.90
2017-05-10T11:51:13.821Z,20.90
2017-05-10T11:52:13.090Z,20.90
2017-05-10T11:53:12.567Z,20.90
2017-05-10T11:54:14.041Z,20.90
2017-05-10T11:55:12.133Z,20.90
2017-05-10T11:56:12.555Z,20.90
2017-05-10T11:57:10.283Z,20.90
2017-05-10T11:58:12.634Z,20.90
2017-05-10T11:59:12.994Z,20.90
2017-05-10T12:00:12.698Z,20.90
2017-05-10T12:01:14.405Z,20.90
2017-05-10T12:02:13.245Z,20.90
2017-05-10T12:03:12.287Z,20.90
2017-05-10T12:04:12.073Z,20.90
2017-05-10T12:05:12.017Z,20.90
2017-05-10T12:06:12.033Z,20.90
2017-05-10T12:07:12.682Z,20.90
2017-05-10T12:08:13.219Z,20.90
2017-05-10T12:09:12.998Z,20.90
2017-05-10T12:10:13.009Z,20.90
2017-05-10T12:11:13.145Z,20.90
2017-05-10T12:12:12.793Z,20.90
2017-05-10T12:13:12.800Z,20.90
2017-05-10T12:14:12.798Z,20.90
2017-05-10T12:15:12.754Z,20.90
2017-05-10T12:16:10.087Z,20.90
2017-05-10T12:17:14.342Z,20.90
2017-05-10T12:18:12.657Z,20.90
2017-05-10T12:19:12.848Z,20.90
2017-05-10T12:20:13.639Z,20.90
2017-05-10T12:21:12.590Z,20.90
2017-05-10T12:22:12.789Z,20.90
2017-05-10T12:23:12.772Z,20.90
2017-05-10T12:24:13.668Z,20.90
2017-05-10T12:25:12.931Z,20.90
2017-05-10T12:26:13.388Z,20.90
2017-05-10T12:27:12.841Z,20.90
2017-05-10T12:28:12.534Z,20.90
2017-05-10T12:29:13.107Z,20.90
2017-05-10T12:30:12.597Z,20.90
2017-05-10T12:31:13.926Z,20.90
2017-05-10T12:32:12.979Z,20.90
2017-05-10T12:33:12.758Z,20.90
2017-05-10T12:34:14.451Z,20.90
2017-05-10T12:35:13.842Z,20.90
2017-05-10T12:36:13.170Z,20.90
2017-05-10T12:37:12.497Z,20.90
2017-05-10T12:38:13.093Z,20.90
2017-05-10T12:39:14.116Z,20.90
2017-05-10T12:40:12.683Z,20.90
2017-05-10T12:41:13.825Z,20.90
2017-05-10T12:42:13.262Z,20.90
2017-05-10T12:43:14.492Z,20.90
2017-05-10T12:44:12.547Z,20.90
2017-05-10T12:45:15.052Z,20.90
2017-05-10T12:46:12.849Z,20.90
2017-05-10T12:47:13.748Z,20.90
2017-05-10T12:48:10.455Z,21.00
2017-05-10T12:49:12.628Z,20.90
2017-05-10T12:50:13.005Z,21.00
2017-05-10T12:51:11.859Z,21.00
2017-05-10T12:52:11.874Z,21.00